sensor_id;sensor_type;location;lat;lon;timestamp;temperature;humidity
68251;DHT22;55066;51.560;4.642;2022-12-18T00:00:46;-4.09;99.99
68251;DHT22;55066;51.560;4.642;2022-12-18T00:03:13;-4.14;99.99
68251;DHT22;55066;51.560;4.642;2022-12-18T00:05:50;-4.24;99.99
68251;DHT22;55066;51.560;4.642;2022-12-18T00:08:16;-4.34;99.99
68251;DHT22;55066;51.560;4.642;2022-12-18T00:10:42;-4.46;99.99
68251;DHT22;55066;51.560;4.642;2022-12-18T00:13:08;-4.37;99.99
68251;DHT22;55066;51.560;4.642;2022-12-18T00:15:37;-4.57;99.99
68251;DHT22;55066;51.560;4.642;2022-12-18T00:18:03;-4.43;99.99
68251;DHT22;55066;51.560;4.642;2022-12-18T00:20:29;-4.31;99.99
68251;DHT22;55066;51.560;4.642;2022-12-18T00:22:55;-4.50;99.99
68251;DHT22;55066;51.560;4.642;2022-12-18T00:25:21;-4.51;99.99
68251;DHT22;55066;51.560;4.642;2022-12-18T00:27:47;-4.54;99.99
68251;DHT22;55066;51.560;4.642;2022-12-18T00:30:13;-4.65;99.99
68251;DHT22;55066;51.560;4.642;2022-12-18T00:32:39;-4.67;99.99
68251;DHT22;55066;51.560;4.642;2022-12-18T00:35:06;-4.82;99.99
68251;DHT22;55066;51.560;4.642;2022-12-18T00:37:33;-4.96;99.99
68251;DHT22;55066;51.560;4.642;2022-12-18T00:39:59;-5.02;99.99
68251;DHT22;55066;51.560;4.642;2022-12-18T00:42:24;-4.99;99.99
68251;DHT22;55066;51.560;4.642;2022-12-18T00:45:09;-5.13;99.99
68251;DHT22;55066;51.560;4.642;2022-12-18T00:47:35;-5.20;99.99
68251;DHT22;55066;51.560;4.642;2022-12-18T00:50:00;-5.22;99.99
68251;DHT22;55066;51.560;4.642;2022-12-18T00:52:26;-5.26;99.99
68251;DHT22;55066;51.560;4.642;2022-12-18T00:54:51;-5.19;99.99
68251;DHT22;55066;51.560;4.642;2022-12-18T00:57:17;-5.38;99.99
68251;DHT22;55066;51.560;4.642;2022-12-18T00:59:42;-5.33;99.99
68251;DHT22;55066;51.560;4.642;2022-12-18T01:02:07;-5.37;99.99
68251;DHT22;55066;51.560;4.642;2022-12-18T01:04:33;-5.37;99.99
68251;DHT22;55066;51.560;4.642;2022-12-18T01:06:59;-5.46;99.99
68251;DHT22;55066;51.560;4.642;2022-12-18T01:09:26;-5.48;99.99
68251;DHT22;55066;51.560;4.642;2022-12-18T01:11:51;-5.47;99.99
68251;DHT22;55066;51.560;4.642;2022-12-18T01:14:17;-5.44;99.99
68251;DHT22;55066;51.560;4.642;2022-12-18T01:16:42;-5.38;99.99
68251;DHT22;55066;51.560;4.642;2022-12-18T01:19:09;-5.27;99.99
68251;DHT22;55066;51.560;4.642;2022-12-18T01:21:34;-5.46;99.99
68251;DHT22;55066;51.560;4.642;2022-12-18T01:24:03;-5.61;99.99
68251;DHT22;55066;51.560;4.642;2022-12-18T01:26:29;-5.57;99.99
68251;DHT22;55066;51.560;4.642;2022-12-18T01:28:57;-5.64;99.99
68251;DHT22;55066;51.560;4.642;2022-12-18T01:31:29;-5.61;99.99
68251;DHT22;55066;51.560;4.642;2022-12-18T01:33:56;-5.71;99.99
68251;DHT22;55066;51.560;4.642;2022-12-18T01:36:32;-5.46;99.99
68251;DHT22;55066;51.560;4.642;2022-12-18T01:39:00;-5.58;99.99
68251;DHT22;55066;51.560;4.642;2022-12-18T01:41:28;-5.81;99.99
68251;DHT22;55066;51.560;4.642;2022-12-18T01:47:28;-5.72;99.99
68251;DHT22;55066;51.560;4.642;2022-12-18T01:49:56;-5.77;99.99
68251;DHT22;55066;51.560;4.642;2022-12-18T01:52:25;-5.54;99.99
68251;DHT22;55066;51.560;4.642;2022-12-18T01:54:51;-5.47;99.99
68251;DHT22;55066;51.560;4.642;2022-12-18T01:57:18;-5.69;99.99
68251;DHT22;55066;51.560;4.642;2022-12-18T01:59:45;-5.50;99.99
68251;DHT22;55066;51.560;4.642;2022-12-18T02:02:15;-5.30;99.99
68251;DHT22;55066;51.560;4.642;2022-12-18T02:04:41;-5.38;99.99
68251;DHT22;55066;51.560;4.642;2022-12-18T02:09:48;-5.41;99.99
68251;DHT22;55066;51.560;4.642;2022-12-18T02:12:19;-5.60;99.99
68251;DHT22;55066;51.560;4.642;2022-12-18T02:14:49;-5.78;99.99
68251;DHT22;55066;51.560;4.642;2022-12-18T02:17:22;-5.61;99.99
68251;DHT22;55066;51.560;4.642;2022-12-18T02:20:23;-5.68;99.99
68251;DHT22;55066;51.560;4.642;2022-12-18T02:26:14;-5.82;99.99
68251;DHT22;55066;51.560;4.642;2022-12-18T02:28:45;-5.88;99.99
68251;DHT22;55066;51.560;4.642;2022-12-18T02:31:17;-5.95;99.99
68251;DHT22;55066;51.560;4.642;2022-12-18T02:33:44;-6.02;99.99
68251;DHT22;55066;51.560;4.642;2022-12-18T02:36:12;-6.06;99.99
68251;DHT22;55066;51.560;4.642;2022-12-18T02:38:39;-6.06;99.99
68251;DHT22;55066;51.560;4.642;2022-12-18T02:41:11;-5.99;99.99
68251;DHT22;55066;51.560;4.642;2022-12-18T02:43:38;-6.00;99.99
68251;DHT22;55066;51.560;4.642;2022-12-18T02:49:01;-6.07;99.99
68251;DHT22;55066;51.560;4.642;2022-12-18T02:51:43;-6.14;99.99
68251;DHT22;55066;51.560;4.642;2022-12-18T02:54:41;-6.13;99.99
68251;DHT22;55066;51.560;4.642;2022-12-18T03:00:03;-6.19;99.99
68251;DHT22;55066;51.560;4.642;2022-12-18T03:02:40;-6.23;99.99
68251;DHT22;55066;51.560;4.642;2022-12-18T03:05:15;-6.20;99.99
68251;DHT22;55066;51.560;4.642;2022-12-18T03:07:55;-6.23;99.99
68251;DHT22;55066;51.560;4.642;2022-12-18T03:10:28;-6.27;99.99
68251;DHT22;55066;51.560;4.642;2022-12-18T03:13:09;-6.38;99.99
68251;DHT22;55066;51.560;4.642;2022-12-18T03:15:39;-6.41;99.99
68251;DHT22;55066;51.560;4.642;2022-12-18T03:18:33;-6.42;99.99
68251;DHT22;55066;51.560;4.642;2022-12-18T03:21:04;-6.48;99.99
68251;DHT22;55066;51.560;4.642;2022-12-18T03:23:39;-6.52;99.99
68251;DHT22;55066;51.560;4.642;2022-12-18T03:26:10;-6.55;99.99
68251;DHT22;55066;51.560;4.642;2022-12-18T03:28:46;-6.41;99.99
68251;DHT22;55066;51.560;4.642;2022-12-18T03:31:14;-6.36;99.99
68251;DHT22;55066;51.560;4.642;2022-12-18T03:33:54;-6.45;99.99
68251;DHT22;55066;51.560;4.642;2022-12-18T03:36:25;-6.51;99.99
68251;DHT22;55066;51.560;4.642;2022-12-18T03:38:51;-6.64;99.99
68251;DHT22;55066;51.560;4.642;2022-12-18T03:41:32;-6.61;99.99
68251;DHT22;55066;51.560;4.642;2022-12-18T03:49:37;-6.60;99.99
68251;DHT22;55066;51.560;4.642;2022-12-18T03:54:34;-6.37;99.99
68251;DHT22;55066;51.560;4.642;2022-12-18T03:57:25;-6.45;99.99
68251;DHT22;55066;51.560;4.642;2022-12-18T04:00:00;-6.45;99.99
68251;DHT22;55066;51.560;4.642;2022-12-18T04:02:43;-6.55;99.99
68251;DHT22;55066;51.560;4.642;2022-12-18T04:05:12;-6.61;99.99
68251;DHT22;55066;51.560;4.642;2022-12-18T04:07:41;-6.64;99.99
68251;DHT22;55066;51.560;4.642;2022-12-18T04:10:09;-6.81;99.99
68251;DHT22;55066;51.560;4.642;2022-12-18T04:12:37;-6.82;99.99
68251;DHT22;55066;51.560;4.642;2022-12-18T04:15:02;-6.81;99.99
68251;DHT22;55066;51.560;4.642;2022-12-18T04:17:28;-6.86;99.99
68251;DHT22;55066;51.560;4.642;2022-12-18T04:19:54;-6.83;99.99
68251;DHT22;55066;51.560;4.642;2022-12-18T04:22:19;-6.83;99.99
68251;DHT22;55066;51.560;4.642;2022-12-18T04:24:47;-6.75;99.99
68251;DHT22;55066;51.560;4.642;2022-12-18T04:27:21;-6.72;99.99
68251;DHT22;55066;51.560;4.642;2022-12-18T04:29:48;-6.74;99.99
68251;DHT22;55066;51.560;4.642;2022-12-18T04:32:16;-6.88;99.99
68251;DHT22;55066;51.560;4.642;2022-12-18T04:34:43;-6.88;99.99
68251;DHT22;55066;51.560;4.642;2022-12-18T04:37:09;-6.91;99.99
68251;DHT22;55066;51.560;4.642;2022-12-18T04:39:34;-6.86;99.99
68251;DHT22;55066;51.560;4.642;2022-12-18T04:42:06;-6.83;99.99
68251;DHT22;55066;51.560;4.642;2022-12-18T04:44:32;-6.89;99.99
68251;DHT22;55066;51.560;4.642;2022-12-18T04:46:58;-6.93;99.99
68251;DHT22;55066;51.560;4.642;2022-12-18T04:49:24;-6.92;99.99
68251;DHT22;55066;51.560;4.642;2022-12-18T04:51:49;-6.95;99.99
68251;DHT22;55066;51.560;4.642;2022-12-18T04:54:15;-7.00;99.99
68251;DHT22;55066;51.560;4.642;2022-12-18T04:56:41;-7.00;99.99
68251;DHT22;55066;51.560;4.642;2022-12-18T04:59:06;-6.99;99.99
68251;DHT22;55066;51.560;4.642;2022-12-18T05:01:32;-6.99;99.99
68251;DHT22;55066;51.560;4.642;2022-12-18T05:03:57;-6.96;99.99
68251;DHT22;55066;51.560;4.642;2022-12-18T05:06:22;-7.00;99.99
68251;DHT22;55066;51.560;4.642;2022-12-18T05:08:48;-7.07;99.99
68251;DHT22;55066;51.560;4.642;2022-12-18T05:11:14;-7.02;99.99
68251;DHT22;55066;51.560;4.642;2022-12-18T05:13:44;-7.06;99.99
68251;DHT22;55066;51.560;4.642;2022-12-18T05:16:10;-7.04;99.99
68251;DHT22;55066;51.560;4.642;2022-12-18T05:18:36;-7.00;99.99
68251;DHT22;55066;51.560;4.642;2022-12-18T05:21:02;-6.96;99.99
68251;DHT22;55066;51.560;4.642;2022-12-18T05:23:28;-7.03;99.99
68251;DHT22;55066;51.560;4.642;2022-12-18T05:25:57;-7.03;99.99
68251;DHT22;55066;51.560;4.642;2022-12-18T05:28:24;-7.12;99.99
68251;DHT22;55066;51.560;4.642;2022-12-18T05:30:51;-7.19;99.99
68251;DHT22;55066;51.560;4.642;2022-12-18T05:33:18;-7.19;99.99
68251;DHT22;55066;51.560;4.642;2022-12-18T05:35:44;-7.21;99.99
68251;DHT22;55066;51.560;4.642;2022-12-18T05:38:10;-7.19;99.99
68251;DHT22;55066;51.560;4.642;2022-12-18T05:40:35;-7.16;99.99
68251;DHT22;55066;51.560;4.642;2022-12-18T05:43:01;-7.20;99.99
68251;DHT22;55066;51.560;4.642;2022-12-18T05:45:27;-7.24;99.99
68251;DHT22;55066;51.560;4.642;2022-12-18T05:47:52;-7.28;99.99
68251;DHT22;55066;51.560;4.642;2022-12-18T05:50:18;-7.30;99.99
68251;DHT22;55066;51.560;4.642;2022-12-18T05:52:43;-7.21;99.99
68251;DHT22;55066;51.560;4.642;2022-12-18T05:55:09;-7.14;99.99
68251;DHT22;55066;51.560;4.642;2022-12-18T05:57:34;-7.20;99.99
68251;DHT22;55066;51.560;4.642;2022-12-18T05:59:59;-7.19;99.99
68251;DHT22;55066;51.560;4.642;2022-12-18T06:02:25;-7.23;99.99
68251;DHT22;55066;51.560;4.642;2022-12-18T06:04:50;-7.31;99.99
68251;DHT22;55066;51.560;4.642;2022-12-18T06:07:16;-7.27;99.99
68251;DHT22;55066;51.560;4.642;2022-12-18T06:09:41;-7.27;99.99
68251;DHT22;55066;51.560;4.642;2022-12-18T06:12:06;-7.27;99.99
68251;DHT22;55066;51.560;4.642;2022-12-18T06:14:32;-7.30;99.99
68251;DHT22;55066;51.560;4.642;2022-12-18T06:16:57;-7.27;99.99
68251;DHT22;55066;51.560;4.642;2022-12-18T06:19:23;-7.20;99.99
68251;DHT22;55066;51.560;4.642;2022-12-18T06:21:48;-7.30;99.99
68251;DHT22;55066;51.560;4.642;2022-12-18T06:24:14;-7.30;99.99
68251;DHT22;55066;51.560;4.642;2022-12-18T06:26:39;-7.40;99.99
68251;DHT22;55066;51.560;4.642;2022-12-18T06:29:05;-7.42;99.99
68251;DHT22;55066;51.560;4.642;2022-12-18T06:31:31;-7.37;99.99
68251;DHT22;55066;51.560;4.642;2022-12-18T06:33:56;-7.24;99.99
68251;DHT22;55066;51.560;4.642;2022-12-18T06:36:22;-7.26;99.99
68251;DHT22;55066;51.560;4.642;2022-12-18T06:38:47;-7.30;99.99
68251;DHT22;55066;51.560;4.642;2022-12-18T06:41:15;-7.32;99.99
68251;DHT22;55066;51.560;4.642;2022-12-18T06:43:41;-7.38;99.99
68251;DHT22;55066;51.560;4.642;2022-12-18T06:46:08;-7.38;99.99
68251;DHT22;55066;51.560;4.642;2022-12-18T06:48:34;-7.40;99.99
68251;DHT22;55066;51.560;4.642;2022-12-18T06:51:00;-7.34;99.99
68251;DHT22;55066;51.560;4.642;2022-12-18T06:53:26;-7.44;99.99
68251;DHT22;55066;51.560;4.642;2022-12-18T06:55:51;-7.44;99.99
68251;DHT22;55066;51.560;4.642;2022-12-18T06:58:17;-7.50;99.99
68251;DHT22;55066;51.560;4.642;2022-12-18T07:00:43;-7.45;99.99
68251;DHT22;55066;51.560;4.642;2022-12-18T07:03:08;-7.40;99.99
68251;DHT22;55066;51.560;4.642;2022-12-18T07:05:34;-7.35;99.99
68251;DHT22;55066;51.560;4.642;2022-12-18T07:07:59;-7.34;99.99
68251;DHT22;55066;51.560;4.642;2022-12-18T07:10:25;-7.31;99.99
68251;DHT22;55066;51.560;4.642;2022-12-18T07:12:50;-7.37;99.99
68251;DHT22;55066;51.560;4.642;2022-12-18T07:15:16;-7.37;99.99
68251;DHT22;55066;51.560;4.642;2022-12-18T07:17:41;-7.38;99.99
68251;DHT22;55066;51.560;4.642;2022-12-18T07:20:07;-7.40;99.99
68251;DHT22;55066;51.560;4.642;2022-12-18T07:22:33;-7.38;99.99
68251;DHT22;55066;51.560;4.642;2022-12-18T07:24:58;-7.41;99.99
68251;DHT22;55066;51.560;4.642;2022-12-18T07:27:24;-7.34;99.99
68251;DHT22;55066;51.560;4.642;2022-12-18T07:29:49;-7.34;99.99
68251;DHT22;55066;51.560;4.642;2022-12-18T07:32:14;-7.27;99.99
68251;DHT22;55066;51.560;4.642;2022-12-18T07:34:40;-7.24;99.99
68251;DHT22;55066;51.560;4.642;2022-12-18T07:37:05;-7.28;99.99
68251;DHT22;55066;51.560;4.642;2022-12-18T07:39:31;-7.16;99.99
68251;DHT22;55066;51.560;4.642;2022-12-18T07:41:56;-7.14;99.99
68251;DHT22;55066;51.560;4.642;2022-12-18T07:44:40;-7.09;99.99
68251;DHT22;55066;51.560;4.642;2022-12-18T07:47:06;-7.03;99.99
68251;DHT22;55066;51.560;4.642;2022-12-18T07:49:32;-6.86;99.99
68251;DHT22;55066;51.560;4.642;2022-12-18T07:51:58;-6.95;99.99
68251;DHT22;55066;51.560;4.642;2022-12-18T07:54:24;-6.92;99.99
68251;DHT22;55066;51.560;4.642;2022-12-18T07:56:50;-6.95;99.99
68251;DHT22;55066;51.560;4.642;2022-12-18T07:59:15;-6.89;99.99
68251;DHT22;55066;51.560;4.642;2022-12-18T08:01:41;-6.76;99.99
68251;DHT22;55066;51.560;4.642;2022-12-18T08:04:06;-6.71;99.99
68251;DHT22;55066;51.560;4.642;2022-12-18T08:06:31;-6.71;99.99
68251;DHT22;55066;51.560;4.642;2022-12-18T08:08:57;-6.82;99.99
68251;DHT22;55066;51.560;4.642;2022-12-18T08:11:24;-6.79;99.99
68251;DHT22;55066;51.560;4.642;2022-12-18T08:13:50;-6.72;99.99
68251;DHT22;55066;51.560;4.642;2022-12-18T08:16:16;-6.64;99.99
68251;DHT22;55066;51.560;4.642;2022-12-18T08:18:41;-6.67;99.99
68251;DHT22;55066;51.560;4.642;2022-12-18T08:21:09;-6.58;99.99
68251;DHT22;55066;51.560;4.642;2022-12-18T08:23:35;-6.69;99.99
68251;DHT22;55066;51.560;4.642;2022-12-18T08:26:00;-6.69;99.99
68251;DHT22;55066;51.560;4.642;2022-12-18T08:28:26;-6.65;99.99
68251;DHT22;55066;51.560;4.642;2022-12-18T08:30:52;-6.58;99.99
68251;DHT22;55066;51.560;4.642;2022-12-18T08:33:17;-6.48;99.99
68251;DHT22;55066;51.560;4.642;2022-12-18T08:35:43;-6.41;99.99
68251;DHT22;55066;51.560;4.642;2022-12-18T08:38:08;-6.34;99.99
68251;DHT22;55066;51.560;4.642;2022-12-18T08:40:33;-6.30;99.99
68251;DHT22;55066;51.560;4.642;2022-12-18T08:42:59;-6.21;99.99
68251;DHT22;55066;51.560;4.642;2022-12-18T08:45:43;-6.19;99.99
68251;DHT22;55066;51.560;4.642;2022-12-18T08:48:09;-6.17;99.99
68251;DHT22;55066;51.560;4.642;2022-12-18T08:50:34;-6.10;99.99
68251;DHT22;55066;51.560;4.642;2022-12-18T08:53:00;-6.09;99.99
68251;DHT22;55066;51.560;4.642;2022-12-18T08:55:26;-6.06;99.99
68251;DHT22;55066;51.560;4.642;2022-12-18T08:57:51;-6.03;99.99
68251;DHT22;55066;51.560;4.642;2022-12-18T09:00:17;-5.98;99.99
68251;DHT22;55066;51.560;4.642;2022-12-18T09:02:42;-5.86;99.99
68251;DHT22;55066;51.560;4.642;2022-12-18T09:05:08;-5.78;99.99
68251;DHT22;55066;51.560;4.642;2022-12-18T09:07:33;-5.74;99.99
68251;DHT22;55066;51.560;4.642;2022-12-18T09:09:58;-5.71;99.99
68251;DHT22;55066;51.560;4.642;2022-12-18T09:12:24;-5.68;99.99
68251;DHT22;55066;51.560;4.642;2022-12-18T09:14:50;-5.58;99.99
68251;DHT22;55066;51.560;4.642;2022-12-18T09:17:15;-5.48;99.99
68251;DHT22;55066;51.560;4.642;2022-12-18T09:19:40;-5.38;99.99
68251;DHT22;55066;51.560;4.642;2022-12-18T09:22:06;-5.34;99.99
68251;DHT22;55066;51.560;4.642;2022-12-18T09:24:31;-5.30;99.99
68251;DHT22;55066;51.560;4.642;2022-12-18T09:26:56;-5.27;99.99
68251;DHT22;55066;51.560;4.642;2022-12-18T09:29:22;-5.19;99.99
68251;DHT22;55066;51.560;4.642;2022-12-18T09:31:47;-5.12;99.99
68251;DHT22;55066;51.560;4.642;2022-12-18T09:34:14;-5.03;99.99
68251;DHT22;55066;51.560;4.642;2022-12-18T09:36:40;-4.99;99.99
68251;DHT22;55066;51.560;4.642;2022-12-18T09:39:05;-4.82;99.99
68251;DHT22;55066;51.560;4.642;2022-12-18T09:44:14;-4.68;99.99
68251;DHT22;55066;51.560;4.642;2022-12-18T09:46:45;-4.54;99.99
68251;DHT22;55066;51.560;4.642;2022-12-18T09:49:15;-4.53;99.99
68251;DHT22;55066;51.560;4.642;2022-12-18T09:51:45;-4.41;99.99
68251;DHT22;55066;51.560;4.642;2022-12-18T09:54:28;-4.34;99.99
68251;DHT22;55066;51.560;4.642;2022-12-18T09:56:55;-4.29;99.99
68251;DHT22;55066;51.560;4.642;2022-12-18T09:59:26;-4.19;99.99
68251;DHT22;55066;51.560;4.642;2022-12-18T10:01:55;-4.13;99.99
68251;DHT22;55066;51.560;4.642;2022-12-18T10:04:20;-3.99;99.99
68251;DHT22;55066;51.560;4.642;2022-12-18T10:06:53;-3.99;99.99
68251;DHT22;55066;51.560;4.642;2022-12-18T10:14:33;-3.78;99.99
68251;DHT22;55066;51.560;4.642;2022-12-18T10:20:08;-3.88;99.99
68251;DHT22;55066;51.560;4.642;2022-12-18T10:22:42;-3.77;99.99
68251;DHT22;55066;51.560;4.642;2022-12-18T10:27:53;-3.64;99.99
68251;DHT22;55066;51.560;4.642;2022-12-18T10:30:22;-3.67;99.99
68251;DHT22;55066;51.560;4.642;2022-12-18T10:32:48;-3.58;99.99
68251;DHT22;55066;51.560;4.642;2022-12-18T10:35:32;-3.48;99.99
68251;DHT22;55066;51.560;4.642;2022-12-18T10:38:05;-3.47;99.99
68251;DHT22;55066;51.560;4.642;2022-12-18T10:40:31;-3.41;99.99
68251;DHT22;55066;51.560;4.642;2022-12-18T10:43:05;-3.48;99.99
68251;DHT22;55066;51.560;4.642;2022-12-18T10:45:31;-3.34;99.99
68251;DHT22;55066;51.560;4.642;2022-12-18T10:47:57;-3.55;99.99
68251;DHT22;55066;51.560;4.642;2022-12-18T10:50:30;-3.34;99.99
68251;DHT22;55066;51.560;4.642;2022-12-18T10:52:58;-3.40;99.99
68251;DHT22;55066;51.560;4.642;2022-12-18T10:55:30;-3.33;99.99
68251;DHT22;55066;51.560;4.642;2022-12-18T10:58:23;-3.13;99.99
68251;DHT22;55066;51.560;4.642;2022-12-18T11:01:15;-3.09;99.99
68251;DHT22;55066;51.560;4.642;2022-12-18T11:04:00;-3.07;99.99
68251;DHT22;55066;51.560;4.642;2022-12-18T11:06:26;-3.05;99.99
68251;DHT22;55066;51.560;4.642;2022-12-18T11:09:17;-2.96;99.99
68251;DHT22;55066;51.560;4.642;2022-12-18T11:14:56;-2.84;99.99
68251;DHT22;55066;51.560;4.642;2022-12-18T11:17:28;-2.77;99.99
68251;DHT22;55066;51.560;4.642;2022-12-18T11:23:01;-2.65;99.99
68251;DHT22;55066;51.560;4.642;2022-12-18T11:25:28;-2.62;99.99
68251;DHT22;55066;51.560;4.642;2022-12-18T11:28:02;-2.60;99.91
68251;DHT22;55066;51.560;4.642;2022-12-18T11:30:36;-2.53;99.99
68251;DHT22;55066;51.560;4.642;2022-12-18T11:41:28;-2.44;99.54
68251;DHT22;55066;51.560;4.642;2022-12-18T11:44:21;-2.33;99.99
68251;DHT22;55066;51.560;4.642;2022-12-18T11:47:03;-2.32;99.99
68251;DHT22;55066;51.560;4.642;2022-12-18T11:49:33;-2.26;99.99
68251;DHT22;55066;51.560;4.642;2022-12-18T11:52:15;-2.23;99.99
68251;DHT22;55066;51.560;4.642;2022-12-18T11:54:41;-2.25;99.92
68251;DHT22;55066;51.560;4.642;2022-12-18T12:00:19;-2.18;99.91
68251;DHT22;55066;51.560;4.642;2022-12-18T12:10:46;-2.02;99.99
68251;DHT22;55066;51.560;4.642;2022-12-18T12:24:27;-2.02;99.99
68251;DHT22;55066;51.560;4.642;2022-12-18T12:30:09;-1.91;99.47
68251;DHT22;55066;51.560;4.642;2022-12-18T12:38:15;-1.89;98.69
68251;DHT22;55066;51.560;4.642;2022-12-18T12:40:46;-1.82;99.74
68251;DHT22;55066;51.560;4.642;2022-12-18T12:43:27;-1.79;99.57
68251;DHT22;55066;51.560;4.642;2022-12-18T12:46:09;-1.72;99.99
68251;DHT22;55066;51.560;4.642;2022-12-18T12:48:43;-1.85;99.96
68251;DHT22;55066;51.560;4.642;2022-12-18T12:51:17;-1.85;99.99
68251;DHT22;55066;51.560;4.642;2022-12-18T12:53:43;-1.78;99.99
68251;DHT22;55066;51.560;4.642;2022-12-18T12:56:13;-1.79;99.98
68251;DHT22;55066;51.560;4.642;2022-12-18T13:04:27;-1.64;99.99
68251;DHT22;55066;51.560;4.642;2022-12-18T13:07:01;-1.74;99.95
68251;DHT22;55066;51.560;4.642;2022-12-18T13:09:31;-1.68;99.99
68251;DHT22;55066;51.560;4.642;2022-12-18T13:12:02;-1.65;99.99
68251;DHT22;55066;51.560;4.642;2022-12-18T13:14:47;-1.68;99.99
68251;DHT22;55066;51.560;4.642;2022-12-18T13:19:44;-1.71;99.99
68251;DHT22;55066;51.560;4.642;2022-12-18T13:22:23;-1.63;99.99
68251;DHT22;55066;51.560;4.642;2022-12-18T13:24:50;-1.68;99.97
68251;DHT22;55066;51.560;4.642;2022-12-18T13:35:50;-1.65;99.34
68251;DHT22;55066;51.560;4.642;2022-12-18T13:40:53;-1.63;99.99
68251;DHT22;55066;51.560;4.642;2022-12-18T13:48:33;-1.57;99.79
68251;DHT22;55066;51.560;4.642;2022-12-18T13:51:07;-1.60;99.99
68251;DHT22;55066;51.560;4.642;2022-12-18T13:53:36;-1.57;99.89
68251;DHT22;55066;51.560;4.642;2022-12-18T13:56:05;-1.57;99.70
68251;DHT22;55066;51.560;4.642;2022-12-18T13:58:31;-1.60;99.99
68251;DHT22;55066;51.560;4.642;2022-12-18T14:00:56;-1.60;99.99
68251;DHT22;55066;51.560;4.642;2022-12-18T14:03:26;-1.63;99.99
68251;DHT22;55066;51.560;4.642;2022-12-18T14:06:04;-1.61;99.99
68251;DHT22;55066;51.560;4.642;2022-12-18T14:08:39;-1.57;99.17
68251;DHT22;55066;51.560;4.642;2022-12-18T14:11:07;-1.60;99.29
68251;DHT22;55066;51.560;4.642;2022-12-18T14:13:42;-1.60;99.99
68251;DHT22;55066;51.560;4.642;2022-12-18T14:16:13;-1.61;99.99
68251;DHT22;55066;51.560;4.642;2022-12-18T14:18:52;-1.54;99.54
68251;DHT22;55066;51.560;4.642;2022-12-18T14:21:27;-1.55;98.68
68251;DHT22;55066;51.560;4.642;2022-12-18T14:24:19;-1.57;99.76
68251;DHT22;55066;51.560;4.642;2022-12-18T14:26:50;-1.55;99.99
68251;DHT22;55066;51.560;4.642;2022-12-18T14:29:30;-1.55;99.80
68251;DHT22;55066;51.560;4.642;2022-12-18T14:32:11;-1.54;99.94
68251;DHT22;55066;51.560;4.642;2022-12-18T14:34:43;-1.53;99.99
68251;DHT22;55066;51.560;4.642;2022-12-18T14:37:14;-1.51;99.99
68251;DHT22;55066;51.560;4.642;2022-12-18T14:39:39;-1.51;99.82
68251;DHT22;55066;51.560;4.642;2022-12-18T14:42:05;-1.53;99.71
68251;DHT22;55066;51.560;4.642;2022-12-18T14:44:30;-1.54;99.99
68251;DHT22;55066;51.560;4.642;2022-12-18T14:46:56;-1.57;99.87
68251;DHT22;55066;51.560;4.642;2022-12-18T14:49:29;-1.57;99.89
68251;DHT22;55066;51.560;4.642;2022-12-18T14:52:38;-1.54;99.99
68251;DHT22;55066;51.560;4.642;2022-12-18T14:54:46;-1.50;99.99
68251;DHT22;55066;51.560;4.642;2022-12-18T14:57:24;-1.47;99.87
68251;DHT22;55066;51.560;4.642;2022-12-18T14:59:50;-1.46;99.99
68251;DHT22;55066;51.560;4.642;2022-12-18T15:02:26;-1.44;99.97
68251;DHT22;55066;51.560;4.642;2022-12-18T15:05:05;-1.46;99.98
68251;DHT22;55066;51.560;4.642;2022-12-18T15:07:45;-1.50;99.99
68251;DHT22;55066;51.560;4.642;2022-12-18T15:10:16;-1.48;99.99
68251;DHT22;55066;51.560;4.642;2022-12-18T15:12:44;-1.47;99.99
68251;DHT22;55066;51.560;4.642;2022-12-18T15:20:54;-1.47;99.99
68251;DHT22;55066;51.560;4.642;2022-12-18T15:23:44;-1.47;99.99
68251;DHT22;55066;51.560;4.642;2022-12-18T15:26:13;-1.47;99.99
68251;DHT22;55066;51.560;4.642;2022-12-18T15:28:50;-1.46;99.99
68251;DHT22;55066;51.560;4.642;2022-12-18T15:34:00;-1.40;99.93
68251;DHT22;55066;51.560;4.642;2022-12-18T15:36:28;-1.39;99.99
68251;DHT22;55066;51.560;4.642;2022-12-18T15:39:02;-1.37;99.99
68251;DHT22;55066;51.560;4.642;2022-12-18T15:41:27;-1.39;99.99
68251;DHT22;55066;51.560;4.642;2022-12-18T15:43:53;-1.40;99.99
68251;DHT22;55066;51.560;4.642;2022-12-18T15:46:23;-1.42;99.99
68251;DHT22;55066;51.560;4.642;2022-12-18T15:48:58;-1.34;99.99
68251;DHT22;55066;51.560;4.642;2022-12-18T15:51:32;-1.32;99.99
68251;DHT22;55066;51.560;4.642;2022-12-18T15:54:00;-1.32;99.81
68251;DHT22;55066;51.560;4.642;2022-12-18T15:56:25;-1.30;99.99
68251;DHT22;55066;51.560;4.642;2022-12-18T15:59:12;-1.30;99.99
68251;DHT22;55066;51.560;4.642;2022-12-18T16:01:38;-1.26;99.21
68251;DHT22;55066;51.560;4.642;2022-12-18T16:04:03;-1.25;99.76
68251;DHT22;55066;51.560;4.642;2022-12-18T16:06:29;-1.25;99.84
68251;DHT22;55066;51.560;4.642;2022-12-18T16:08:54;-1.20;99.96
68251;DHT22;55066;51.560;4.642;2022-12-18T16:11:23;-1.21;99.99
68251;DHT22;55066;51.560;4.642;2022-12-18T16:14:20;-1.23;99.99
68251;DHT22;55066;51.560;4.642;2022-12-18T16:16:48;-1.19;99.43
68251;DHT22;55066;51.560;4.642;2022-12-18T16:19:14;-1.21;99.17
68251;DHT22;55066;51.560;4.642;2022-12-18T16:21:39;-1.19;99.99
68251;DHT22;55066;51.560;4.642;2022-12-18T16:24:05;-1.17;99.89
68251;DHT22;55066;51.560;4.642;2022-12-18T16:26:30;-1.15;99.54
68251;DHT22;55066;51.560;4.642;2022-12-18T16:28:55;-1.16;99.99
68251;DHT22;55066;51.560;4.642;2022-12-18T16:31:21;-1.15;99.99
68251;DHT22;55066;51.560;4.642;2022-12-18T16:33:46;-1.07;99.59
68251;DHT22;55066;51.560;4.642;2022-12-18T16:36:12;-1.07;99.32
68251;DHT22;55066;51.560;4.642;2022-12-18T16:38:37;-1.05;98.70
68251;DHT22;55066;51.560;4.642;2022-12-18T16:41:17;-1.03;98.67
68251;DHT22;55066;51.560;4.642;2022-12-18T16:44:02;-1.02;98.70
68251;DHT22;55066;51.560;4.642;2022-12-18T16:46:28;-0.98;99.17
68251;DHT22;55066;51.560;4.642;2022-12-18T16:48:54;-0.99;98.49
68251;DHT22;55066;51.560;4.642;2022-12-18T16:51:19;-0.96;98.75
68251;DHT22;55066;51.560;4.642;2022-12-18T16:53:44;-0.91;98.71
68251;DHT22;55066;51.560;4.642;2022-12-18T16:56:10;-0.88;98.51
68251;DHT22;55066;51.560;4.642;2022-12-18T16:58:35;-0.85;98.54
68251;DHT22;55066;51.560;4.642;2022-12-18T17:01:06;-0.81;98.06
68251;DHT22;55066;51.560;4.642;2022-12-18T17:03:32;-0.78;97.93
68251;DHT22;55066;51.560;4.642;2022-12-18T17:06:04;-0.77;97.91
68251;DHT22;55066;51.560;4.642;2022-12-18T17:08:30;-0.71;97.65
68251;DHT22;55066;51.560;4.642;2022-12-18T17:10:55;-0.61;96.90
68251;DHT22;55066;51.560;4.642;2022-12-18T17:13:21;-0.53;96.76
68251;DHT22;55066;51.560;4.642;2022-12-18T17:15:48;-0.54;96.62
68251;DHT22;55066;51.560;4.642;2022-12-18T17:18:13;-0.50;96.33
68251;DHT22;55066;51.560;4.642;2022-12-18T17:20:38;-0.45;96.23
68251;DHT22;55066;51.560;4.642;2022-12-18T17:23:04;-0.43;95.95
68251;DHT22;55066;51.560;4.642;2022-12-18T17:25:29;-0.51;96.18
68251;DHT22;55066;51.560;4.642;2022-12-18T17:27:55;-0.47;96.35
68251;DHT22;55066;51.560;4.642;2022-12-18T17:30:20;-0.47;96.54
68251;DHT22;55066;51.560;4.642;2022-12-18T17:32:45;-0.40;96.62
68251;DHT22;55066;51.560;4.642;2022-12-18T17:35:11;-0.43;96.44
68251;DHT22;55066;51.560;4.642;2022-12-18T17:37:36;-0.37;96.26